Time;durP1;ratioP1;P1;durP2;ratioP2;P2;SDS_P1;SDS_P2;PMS_P1;PMS_P2;Temp;Humidity;BMP_temperature;BMP_pressure;BME280_temperature;BME280_humidity;BME280_pressure;Samples;Min_cycle;Max_cycle;Signal;HPM_P1;HPM_P2
2022/09/07 00:00:52;;;;;;;;;;;;;;;;;;5012006;28;8434;-82
2022/09/07 00:03:18;;;;;;;;;;;;;;;;;;5011914;28;7436;-82
2022/09/07 00:05:46;;;;;;;;;;;;;;;;;;5011393;28;8353;-83
2022/09/07 00:08:12;;;;;;;;;;;;;;;;;;5011710;28;8725;-82
2022/09/07 00:10:38;;;;;;;;;;;;;;;;;;5011320;28;8512;-82
2022/09/07 00:13:04;;;;;;;;;;;;;;;;;;5011100;28;8591;-83
2022/09/07 00:15:29;;;;;;;;;;;;;;;;;;5011704;28;8478;-83
2022/09/07 00:17:55;;;;;;;;;;;;;;;;;;5012093;28;8416;-82
2022/09/07 00:20:20;;;;;;;;;;;;;;;;;;5011114;28;8903;-83
2022/09/07 00:22:46;;;;;;;;;;;;;;;;;;5010931;28;8463;-83
2022/09/07 00:25:11;;;;;;;;;;;;;;;;;;5012041;28;7245;-82
2022/09/07 00:27:37;;;;;;;;;;;;;;;;;;5010866;28;8612;-82
2022/09/07 00:30:04;;;;;;;;;;;;;;;;;;5010859;28;7434;-81
2022/09/07 00:32:29;;;;;;;;;;;;;;;;;;5010714;28;7640;-82
2022/09/07 00:34:55;;;;;;;;;;;;;;;;;;5022570;28;8613;-81
2022/09/07 00:37:20;;;;;;;;;;;;;;;;;;5030329;28;7172;-81
2022/09/07 00:39:46;;;;;;;;;;;;;;;;;;5030445;28;7211;-82
2022/09/07 00:42:11;;;;;;;;;;;;;;;;;;5030757;28;7162;-83
2022/09/07 00:44:43;;;;;;;;;;;;;;;;;;5030373;28;7151;-83
2022/09/07 00:47:18;;;;;;;;;;;;;;;;;;5014099;28;7182;-82
2022/09/07 00:49:47;;;;;;;;;;;;;;;;;;5030726;28;8414;-82
2022/09/07 00:52:16;;;;;;;;;;;;;;;;;;5030440;28;7151;-82
2022/09/07 00:54:45;;;;;;;;;;;;;;;;;;5029703;28;8385;-82
2022/09/07 00:57:12;;;;;;;;;;;;;;;;;;5030464;28;8783;-83
2022/09/07 00:59:41;;;;;;;;;;;;;;;;;;5029978;28;8479;-83
2022/09/07 01:02:07;;;;;;;;;;;;;;;;;;5030801;28;8346;-82
2022/09/07 01:04:34;;;;;;;;;;;;;;;;;;5030327;28;8564;-83
2022/09/07 01:07:01;;;;;;;;;;;;;;;;;;5030224;28;8340;-82
2022/09/07 01:09:28;;;;;;;;;;;;;;;;;;5030541;28;8593;-83
2022/09/07 01:11:57;;;;;;;;;;;;;;;;;;5030219;28;9495;-83
2022/09/07 01:14:26;;;;;;;;;;;;;;;;;;5030077;28;8793;-82
2022/09/07 01:17:01;;;;;;;;;;;;;;;;;;5030168;28;9129;-83
2022/09/07 01:19:33;;;;;;;;;;;;;;;;;;5013775;28;8426;-82
2022/09/07 01:22:11;;;;;;;;;;;;;;;;;;5014119;28;7270;-82
2022/09/07 01:24:51;;;;;;;;;;;;;;;;;;5013887;28;8738;-83
2022/09/07 01:27:32;;;;;;;;;;;;;;;;;;5030431;28;7237;-83
2022/09/07 01:29:57;;;;;;;;;;;;;;;;;;5013072;28;7132;-83
2022/09/07 01:32:41;;;;;;;;;;;;;;;;;;5013877;28;8413;-82
2022/09/07 01:35:15;;;;;;;;;;;;;;;;;;5013479;28;8770;-83
2022/09/07 01:37:47;;;;;;;;;;;;;;;;;;5029761;28;8442;-83
2022/09/07 01:40:22;;;;;;;;;;;;;;;;;;5013339;28;8731;-82
2022/09/07 01:42:54;;;;;;;;;;;;;;;;;;5013334;28;7084;-83
2022/09/07 01:45:25;;;;;;;;;;;;;;;;;;5029931;28;8453;-83
2022/09/07 01:47:59;;;;;;;;;;;;;;;;;;5030617;28;7075;-83
2022/09/07 01:50:35;;;;;;;;;;;;;;;;;;5030287;28;7416;-84
2022/09/07 01:53:00;;;;;;;;;;;;;;;;;;5029765;28;8779;-84
2022/09/07 01:55:43;;;;;;;;;;;;;;;;;;5013706;28;7038;-84
2022/09/07 01:58:14;;;;;;;;;;;;;;;;;;5030073;28;7152;-85
2022/09/07 02:00:45;;;;;;;;;;;;;;;;;;5030932;28;8802;-84
2022/09/07 02:03:16;;;;;;;;;;;;;;;;;;5033010;28;8451;-83
2022/09/07 02:05:51;;;;;;;;;;;;;;;;;;5033284;28;8817;-82
2022/09/07 02:08:29;;;;;;;;;;;;;;;;;;5033565;28;7058;-83
2022/09/07 02:10:59;;;;;;;;;;;;;;;;;;5032999;28;7063;-84
2022/09/07 02:13:35;;;;;;;;;;;;;;;;;;5033424;28;8848;-83
2022/09/07 02:16:08;;;;;;;;;;;;;;;;;;5033404;28;8659;-83
2022/09/07 02:18:46;;;;;;;;;;;;;;;;;;5033266;28;8288;-83
2022/09/07 02:21:16;;;;;;;;;;;;;;;;;;5033290;28;8427;-83
2022/09/07 02:23:55;;;;;;;;;;;;;;;;;;5033304;28;7040;-82
2022/09/07 02:26:25;;;;;;;;;;;;;;;;;;5033043;28;8902;-82
2022/09/07 02:28:51;;;;;;;;;;;;;;;;;;5032831;28;8675;-83
2022/09/07 02:31:16;;;;;;;;;;;;;;;;;;5032920;28;7161;-83
2022/09/07 02:33:43;;;;;;;;;;;;;;;;;;5032069;28;8139;-83
2022/09/07 02:36:11;;;;;;;;;;;;;;;;;;5032428;28;7530;-83
2022/09/07 02:38:37;;;;;;;;;;;;;;;;;;5032418;28;8788;-82
2022/09/07 02:41:03;;;;;;;;;;;;;;;;;;5032641;28;8361;-83
2022/09/07 02:43:31;;;;;;;;;;;;;;;;;;5032444;28;8416;-84
2022/09/07 02:46:10;;;;;;;;;;;;;;;;;;5032575;28;8500;-84
2022/09/07 02:48:42;;;;;;;;;;;;;;;;;;5032465;28;7627;-82
2022/09/07 02:51:08;;;;;;;;;;;;;;;;;;5016007;28;8462;-82
2022/09/07 02:53:50;;;;;;;;;;;;;;;;;;5016209;28;7090;-82
2022/09/07 02:56:16;;;;;;;;;;;;;;;;;;5032577;28;7171;-84
2022/09/07 02:58:41;;;;;;;;;;;;;;;;;;5016033;28;8441;-81
2022/09/07 03:01:13;;;;;;;;;;;;;;;;;;5015771;28;7238;-82
2022/09/07 03:03:52;;;;;;;;;;;;;;;;;;5016182;28;7158;-83
2022/09/07 03:06:24;;;;;;;;;;;;;;;;;;5029167;28;7150;-83
2022/09/07 03:08:53;;;;;;;;;;;;;;;;;;5015249;28;8658;-84
2022/09/07 03:11:20;;;;;;;;;;;;;;;;;;5031627;28;8472;-83
2022/09/07 03:13:45;;;;;;;;;;;;;;;;;;5032125;28;7074;-83
2022/09/07 03:16:14;;;;;;;;;;;;;;;;;;5032349;28;7178;-83
2022/09/07 03:18:41;;;;;;;;;;;;;;;;;;5032106;28;8363;-82
2022/09/07 03:21:07;;;;;;;;;;;;;;;;;;5031941;28;8445;-83
2022/09/07 03:23:32;;;;;;;;;;;;;;;;;;5032423;28;8845;-81
2022/09/07 03:25:58;;;;;;;;;;;;;;;;;;5022418;28;7147;-81
2022/09/07 03:28:23;;;;;;;;;;;;;;;;;;5012186;28;8434;-81
2022/09/07 03:30:49;;;;;;;;;;;;;;;;;;5011974;28;8337;-82
2022/09/07 03:33:15;;;;;;;;;;;;;;;;;;5011950;28;7151;-82
2022/09/07 03:35:45;;;;;;;;;;;;;;;;;;5012255;28;8444;-82
2022/09/07 03:38:10;;;;;;;;;;;;;;;;;;5012223;28;9169;-83
2022/09/07 03:40:36;;;;;;;;;;;;;;;;;;5012512;28;7132;-82
2022/09/07 03:43:02;;;;;;;;;;;;;;;;;;5012025;28;7066;-82
2022/09/07 03:45:27;;;;;;;;;;;;;;;;;;5012463;28;8968;-81
2022/09/07 03:47:53;;;;;;;;;;;;;;;;;;5012123;28;8484;-82
2022/09/07 03:50:18;;;;;;;;;;;;;;;;;;5012102;28;8486;-81
2022/09/07 03:52:43;;;;;;;;;;;;;;;;;;5011772;28;8875;-83
2022/09/07 03:55:09;;;;;;;;;;;;;;;;;;5011598;28;7239;-82
2022/09/07 03:57:35;;;;;;;;;;;;;;;;;;5011458;28;7340;-82
2022/09/07 04:00:01;;;;;;;;;;;;;;;;;;5011654;28;8439;-83
2022/09/07 04:02:27;;;;;;;;;;;;;;;;;;5011776;28;8660;-83
2022/09/07 04:04:52;;;;;;;;;;;;;;;;;;5011748;28;7164;-83
2022/09/07 04:07:18;;;;;;;;;;;;;;;;;;5011343;28;8381;-82
2022/09/07 04:09:43;;;;;;;;;;;;;;;;;;5011308;28;7167;-83
2022/09/07 04:12:09;;;;;;;;;;;;;;;;;;5011299;28;8706;-83
2022/09/07 04:14:34;;;;;;;;;;;;;;;;;;5011381;28;8404;-83
2022/09/07 04:16:59;;;;;;;;;;;;;;;;;;5011220;28;7253;-82
2022/09/07 04:19:25;;;;;;;;;;;;;;;;;;5011082;28;8372;-83
2022/09/07 04:21:51;;;;;;;;;;;;;;;;;;5011055;28;8431;-83
2022/09/07 04:24:17;;;;;;;;;;;;;;;;;;5010625;28;8711;-81
2022/09/07 04:26:43;;;;;;;;;;;;;;;;;;5011134;28;8767;-83
2022/09/07 04:29:10;;;;;;;;;;;;;;;;;;5011363;28;8837;-83
2022/09/07 04:31:36;;;;;;;;;;;;;;;;;;5011003;28;8451;-83
2022/09/07 04:34:02;;;;;;;;;;;;;;;;;;5011086;28;8430;-83
2022/09/07 04:36:27;;;;;;;;;;;;;;;;;;5011448;28;8244;-83
2022/09/07 04:38:58;;;;;;;;;;;;;;;;;;5010166;28;8373;-82
2022/09/07 04:41:24;;;;;;;;;;;;;;;;;;5010919;28;8385;-82
2022/09/07 04:43:54;;;;;;;;;;;;;;;;;;5011236;28;7116;-82
2022/09/07 04:46:21;;;;;;;;;;;;;;;;;;5010516;28;8395;-82
2022/09/07 04:48:48;;;;;;;;;;;;;;;;;;5010686;28;8722;-81
2022/09/07 04:51:13;;;;;;;;;;;;;;;;;;5010726;28;8357;-82
2022/09/07 04:53:39;;;;;;;;;;;;;;;;;;5011229;28;8443;-82
2022/09/07 04:56:04;;;;;;;;;;;;;;;;;;5010661;28;7147;-82
2022/09/07 04:58:30;;;;;;;;;;;;;;;;;;5010546;28;8410;-82
2022/09/07 05:00:59;;;;;;;;;;;;;;;;;;5010619;28;8411;-82
2022/09/07 05:03:25;;;;;;;;;;;;;;;;;;5010576;28;8389;-82
2022/09/07 05:05:50;;;;;;;;;;;;;;;;;;5010507;28;8728;-82
2022/09/07 05:08:16;;;;;;;;;;;;;;;;;;5010714;28;8430;-82
2022/09/07 05:10:49;;;;;;;;;;;;;;;;;;5010870;28;7067;-82
2022/09/07 05:13:14;;;;;;;;;;;;;;;;;;5010609;28;8877;-82
2022/09/07 05:15:40;;;;;;;;;;;;;;;;;;5010484;28;8411;-82
2022/09/07 05:18:05;;;;;;;;;;;;;;;;;;5010488;28;8497;-82
2022/09/07 05:20:31;;;;;;;;;;;;;;;;;;5010194;28;8688;-82
2022/09/07 05:22:58;;;;;;;;;;;;;;;;;;5010083;28;8753;-83
2022/09/07 05:25:27;;;;;;;;;;;;;;;;;;5010526;28;9045;-83
2022/09/07 05:27:54;;;;;;;;;;;;;;;;;;5010372;28;7376;-83
2022/09/07 05:30:20;;;;;;;;;;;;;;;;;;5010065;28;9478;-81
2022/09/07 05:32:46;;;;;;;;;;;;;;;;;;5010372;28;7223;-82
2022/09/07 05:35:11;;;;;;;;;;;;;;;;;;5012606;28;8751;-83
2022/09/07 05:37:37;;;;;;;;;;;;;;;;;;5014237;28;6977;-83
2022/09/07 05:40:04;;;;;;;;;;;;;;;;;;5014386;28;7167;-83
2022/09/07 05:42:30;;;;;;;;;;;;;;;;;;5013865;28;7067;-83
2022/09/07 05:44:56;;;;;;;;;;;;;;;;;;5015047;28;8888;-82
2022/09/07 05:47:22;;;;;;;;;;;;;;;;;;5013949;28;7134;-81
2022/09/07 05:49:47;;;;;;;;;;;;;;;;;;5013721;28;8417;-82
2022/09/07 05:52:14;;;;;;;;;;;;;;;;;;5012801;28;8357;-82
2022/09/07 05:54:39;;;;;;;;;;;;;;;;;;5013674;28;7191;-83
2022/09/07 05:57:06;;;;;;;;;;;;;;;;;;5013872;28;8449;-83
2022/09/07 05:59:32;;;;;;;;;;;;;;;;;;5014004;28;8508;-83
2022/09/07 06:01:57;;;;;;;;;;;;;;;;;;5013098;28;8385;-82
2022/09/07 06:04:23;;;;;;;;;;;;;;;;;;5013145;28;7407;-83
2022/09/07 06:06:48;;;;;;;;;;;;;;;;;;5015434;28;8552;-83
2022/09/07 06:09:14;;;;;;;;;;;;;;;;;;5013703;28;8422;-83
2022/09/07 06:11:40;;;;;;;;;;;;;;;;;;5013268;28;7439;-83
2022/09/07 06:14:05;;;;;;;;;;;;;;;;;;5012953;28;7132;-83
2022/09/07 06:16:32;;;;;;;;;;;;;;;;;;5013523;28;8304;-83
2022/09/07 06:18:58;;;;;;;;;;;;;;;;;;5013132;28;8682;-82
2022/09/07 06:21:23;;;;;;;;;;;;;;;;;;5012978;28;8300;-83
2022/09/07 06:23:49;;;;;;;;;;;;;;;;;;5012938;28;8490;-82
2022/09/07 06:26:16;;;;;;;;;;;;;;;;;;5012940;28;8713;-83
2022/09/07 06:28:43;;;;;;;;;;;;;;;;;;5013502;28;8459;-83
2022/09/07 06:31:13;;;;;;;;;;;;;;;;;;5013358;28;8790;-84
2022/09/07 06:33:40;;;;;;;;;;;;;;;;;;5013120;28;7195;-83
2022/09/07 06:36:10;;;;;;;;;;;;;;;;;;5013278;28;7099;-84
2022/09/07 06:38:37;;;;;;;;;;;;;;;;;;5013160;28;7061;-83
2022/09/07 06:41:04;;;;;;;;;;;;;;;;;;5012986;28;8516;-83
2022/09/07 06:43:29;;;;;;;;;;;;;;;;;;5013063;28;8788;-83
2022/09/07 06:45:55;;;;;;;;;;;;;;;;;;5012163;28;7054;-83
2022/09/07 06:48:21;;;;;;;;;;;;;;;;;;5013280;28;7445;-83
2022/09/07 06:50:54;;;;;;;;;;;;;;;;;;5012900;28;7223;-83
2022/09/07 06:53:20;;;;;;;;;;;;;;;;;;5013225;28;7204;-84
2022/09/07 06:55:46;;;;;;;;;;;;;;;;;;5012988;28;8506;-84
2022/09/07 06:58:11;;;;;;;;;;;;;;;;;;5013078;28;7059;-83
2022/09/07 07:00:37;;;;;;;;;;;;;;;;;;5013008;28;8403;-83
2022/09/07 07:03:03;;;;;;;;;;;;;;;;;;5012603;28;8624;-84
2022/09/07 07:05:30;;;;;;;;;;;;;;;;;;5013163;28;8480;-82
2022/09/07 07:07:56;;;;;;;;;;;;;;;;;;5012721;28;7079;-83
2022/09/07 07:10:22;;;;;;;;;;;;;;;;;;5012692;28;7153;-84
2022/09/07 07:12:47;;;;;;;;;;;;;;;;;;5013383;28;8467;-84
2022/09/07 07:15:13;;;;;;;;;;;;;;;;;;5012775;28;8736;-83
2022/09/07 07:17:39;;;;;;;;;;;;;;;;;;5012213;28;8386;-83
2022/09/07 07:20:05;;;;;;;;;;;;;;;;;;5012616;28;8448;-84
2022/09/07 07:22:31;;;;;;;;;;;;;;;;;;5012293;28;8909;-83
2022/09/07 07:24:57;;;;;;;;;;;;;;;;;;5012360;28;7206;-83
2022/09/07 07:27:22;;;;;;;;;;;;;;;;;;5012236;28;8704;-83
2022/09/07 07:29:48;;;;;;;;;;;;;;;;;;5012712;28;8415;-84
2022/09/07 07:32:14;;;;;;;;;;;;;;;;;;5011832;28;7159;-84
2022/09/07 07:34:40;;;;;;;;;;;;;;;;;;5012988;28;8370;-84
2022/09/07 07:37:05;;;;;;;;;;;;;;;;;;5012572;28;7198;-83
2022/09/07 07:39:31;;;;;;;;;;;;;;;;;;4995883;28;8412;-83
2022/09/07 07:41:57;;;;;;;;;;;;;;;;;;5012636;28;8731;-82
2022/09/07 07:44:22;;;;;;;;;;;;;;;;;;5012352;28;8528;-83
2022/09/07 07:46:48;;;;;;;;;;;;;;;;;;5011764;28;7160;-83
2022/09/07 07:49:14;;;;;;;;;;;;;;;;;;5011736;28;8675;-84
2022/09/07 07:51:40;;;;;;;;;;;;;;;;;;5011532;28;8413;-83
2022/09/07 07:54:06;;;;;;;;;;;;;;;;;;4995523;28;8885;-84
2022/09/07 07:56:32;;;;;;;;;;;;;;;;;;5012075;28;7188;-82
2022/09/07 07:58:57;;;;;;;;;;;;;;;;;;5012100;28;7154;-83
2022/09/07 08:01:23;;;;;;;;;;;;;;;;;;5011682;28;7159;-83
2022/09/07 08:03:49;;;;;;;;;;;;;;;;;;5011624;28;7165;-83
2022/09/07 08:06:17;;;;;;;;;;;;;;;;;;5011371;28;7144;-83
2022/09/07 08:08:44;;;;;;;;;;;;;;;;;;5011447;28;7088;-84
2022/09/07 08:11:12;;;;;;;;;;;;;;;;;;5011467;28;7085;-83
2022/09/07 08:13:39;;;;;;;;;;;;;;;;;;5011544;28;8527;-83
2022/09/07 08:16:05;;;;;;;;;;;;;;;;;;5011470;28;8826;-84
2022/09/07 08:18:34;;;;;;;;;;;;;;;;;;5011295;28;8523;-83
2022/09/07 08:21:01;;;;;;;;;;;;;;;;;;5011114;28;8426;-83
2022/09/07 08:23:27;;;;;;;;;;;;;;;;;;5011032;28;7127;-83
2022/09/07 08:25:57;;;;;;;;;;;;;;;;;;5011582;28;7536;-84
2022/09/07 08:28:23;;;;;;;;;;;;;;;;;;5011020;28;7395;-83
2022/09/07 08:30:49;;;;;;;;;;;;;;;;;;5011759;28;7981;-83
2022/09/07 08:33:15;;;;;;;;;;;;;;;;;;5011278;28;7349;-83
2022/09/07 08:35:40;;;;;;;;;;;;;;;;;;5010810;28;9498;-84
2022/09/07 08:38:06;;;;;;;;;;;;;;;;;;5011218;28;7131;-84
2022/09/07 08:40:36;;;;;;;;;;;;;;;;;;5010945;28;7330;-83
2022/09/07 08:43:20;;;;;;;;;;;;;;;;;;5011001;28;8794;-84
2022/09/07 08:45:50;;;;;;;;;;;;;;;;;;4995371;28;9433;-84
2022/09/07 08:48:19;;;;;;;;;;;;;;;;;;5010818;28;7292;-83
2022/09/07 08:50:59;;;;;;;;;;;;;;;;;;5010917;28;9106;-83
2022/09/07 08:53:27;;;;;;;;;;;;;;;;;;5011013;28;7269;-84
2022/09/07 08:56:16;;;;;;;;;;;;;;;;;;5011178;28;8334;-83
2022/09/07 08:58:49;;;;;;;;;;;;;;;;;;5010508;28;8497;-82
2022/09/07 09:01:17;;;;;;;;;;;;;;;;;;5010950;28;8903;-82
2022/09/07 09:03:43;;;;;;;;;;;;;;;;;;5011461;28;7071;-84
2022/09/07 09:06:11;;;;;;;;;;;;;;;;;;5010540;28;8741;-83
2022/09/07 09:08:52;;;;;;;;;;;;;;;;;;4994176;28;9419;-84
2022/09/07 09:11:21;;;;;;;;;;;;;;;;;;5010844;28;7524;-84
2022/09/07 09:13:55;;;;;;;;;;;;;;;;;;4994729;28;8662;-83
2022/09/07 09:16:31;;;;;;;;;;;;;;;;;;5010711;28;8448;-83
2022/09/07 09:18:56;;;;;;;;;;;;;;;;;;5010722;28;8496;-84
2022/09/07 09:21:22;;;;;;;;;;;;;;;;;;4994087;28;8337;-83
2022/09/07 09:23:52;;;;;;;;;;;;;;;;;;5011233;28;8317;-84
2022/09/07 09:26:25;;;;;;;;;;;;;;;;;;5010636;28;8755;-84
2022/09/07 09:28:51;;;;;;;;;;;;;;;;;;5010716;28;7182;-84
2022/09/07 09:31:18;;;;;;;;;;;;;;;;;;5010492;28;8497;-84
2022/09/07 09:34:04;;;;;;;;;;;;;;;;;;5010646;28;8456;-84
2022/09/07 09:36:34;;;;;;;;;;;;;;;;;;5010178;28;7089;-85
2022/09/07 09:39:02;;;;;;;;;;;;;;;;;;5010047;28;7436;-84
2022/09/07 09:41:35;;;;;;;;;;;;;;;;;;5010092;28;7609;-86
2022/09/07 09:44:02;;;;;;;;;;;;;;;;;;5010184;28;7163;-87
2022/09/07 09:46:30;;;;;;;;;;;;;;;;;;5010276;28;7075;-86
2022/09/07 09:48:58;;;;;;;;;;;;;;;;;;5010085;28;8458;-87
2022/09/07 09:51:26;;;;;;;;;;;;;;;;;;5009828;28;8782;-84
2022/09/07 09:53:56;;;;;;;;;;;;;;;;;;5009995;28;8634;-83
2022/09/07 09:56:24;;;;;;;;;;;;;;;;;;5010695;28;7253;-84
2022/09/07 09:59:10;;;;;;;;;;;;;;;;;;5009923;28;8437;-84
2022/09/07 10:01:36;;;;;;;;;;;;;;;;;;5010170;28;8613;-84
2022/09/07 10:04:30;;;;;;;;;;;;;;;;;;5010095;28;8796;-84
2022/09/07 10:07:02;;;;;;;;;;;;;;;;;;5009987;28;8446;-84
2022/09/07 10:09:55;;;;;;;;;;;;;;;;;;5010601;28;7207;-85
2022/09/07 10:12:20;;;;;;;;;;;;;;;;;;4990722;28;7199;-83
2022/09/07 10:14:46;;;;;;;;;;;;;;;;;;4993980;28;8595;-83
2022/09/07 10:17:18;;;;;;;;;;;;;;;;;;5009841;28;7203;-83
2022/09/07 10:19:44;;;;;;;;;;;;;;;;;;5010004;28;7140;-84
2022/09/07 10:22:28;;;;;;;;;;;;;;;;;;5011496;28;8460;-81
2022/09/07 10:24:53;;;;;;;;;;;;;;;;;;4997093;28;8513;-84
2022/09/07 10:27:27;;;;;;;;;;;;;;;;;;5014174;28;7175;-83
2022/09/07 10:29:54;;;;;;;;;;;;;;;;;;5013274;28;7385;-84
2022/09/07 10:32:36;;;;;;;;;;;;;;;;;;5013158;28;9242;-82
2022/09/07 10:35:13;;;;;;;;;;;;;;;;;;5013268;28;8739;-84
2022/09/07 10:37:57;;;;;;;;;;;;;;;;;;5013816;28;7541;-82
2022/09/07 10:40:23;;;;;;;;;;;;;;;;;;4996882;28;7195;-83
2022/09/07 10:42:59;;;;;;;;;;;;;;;;;;4996634;28;6838;-85
2022/09/07 10:45:45;;;;;;;;;;;;;;;;;;5012872;28;7142;-86
2022/09/07 10:48:20;;;;;;;;;;;;;;;;;;4967095;28;8444;-85
2022/09/07 10:51:02;;;;;;;;;;;;;;;;;;4996386;28;7185;-82
2022/09/07 10:53:34;;;;;;;;;;;;;;;;;;5013011;28;8428;-84
2022/09/07 10:56:18;;;;;;;;;;;;;;;;;;5012189;28;8741;-87
2022/09/07 10:59:16;;;;;;;;;;;;;;;;;;5012869;28;7441;-85
2022/09/07 11:01:41;;;;;;;;;;;;;;;;;;4963565;28;8754;-86
2022/09/07 11:04:10;;;;;;;;;;;;;;;;;;5012730;28;8438;-85
2022/09/07 11:06:40;;;;;;;;;;;;;;;;;;5013056;28;8544;-86
2022/09/07 11:09:24;;;;;;;;;;;;;;;;;;5012921;28;8921;-84
2022/09/07 11:12:01;;;;;;;;;;;;;;;;;;5012769;28;8960;-84
2022/09/07 11:14:30;;;;;;;;;;;;;;;;;;5013117;28;8876;-84
2022/09/07 11:17:01;;;;;;;;;;;;;;;;;;5012354;28;8461;-84
2022/09/07 11:19:40;;;;;;;;;;;;;;;;;;5012502;28;8469;-82
2022/09/07 11:22:24;;;;;;;;;;;;;;;;;;5011981;28;8462;-84
2022/09/07 11:24:58;;;;;;;;;;;;;;;;;;5012400;28;8520;-84
2022/09/07 11:27:44;;;;;;;;;;;;;;;;;;5012273;28;8769;-84
2022/09/07 11:30:13;;;;;;;;;;;;;;;;;;4996980;28;8841;-85
2022/09/07 11:32:45;;;;;;;;;;;;;;;;;;5012554;28;8516;-84
2022/09/07 11:35:11;;;;;;;;;;;;;;;;;;5012021;28;8527;-86
2022/09/07 11:37:39;;;;;;;;;;;;;;;;;;5012500;28;8789;-86
2022/09/07 11:40:12;;;;;;;;;;;;;;;;;;5012746;28;8671;-87
2022/09/07 11:42:46;;;;;;;;;;;;;;;;;;5012056;28;7195;-86
2022/09/07 11:45:25;;;;;;;;;;;;;;;;;;5012209;28;8437;-83
2022/09/07 11:48:19;;;;;;;;;;;;;;;;;;5012287;28;7192;-83
2022/09/07 11:50:50;;;;;;;;;;;;;;;;;;4982212;28;8477;-84
2022/09/07 11:53:38;;;;;;;;;;;;;;;;;;5012467;28;7389;-83
2022/09/07 11:56:11;;;;;;;;;;;;;;;;;;5011821;28;8455;-86
2022/09/07 11:59:09;;;;;;;;;;;;;;;;;;5011965;28;8489;-85
2022/09/07 12:01:43;;;;;;;;;;;;;;;;;;4962811;28;8656;-84
2022/09/07 12:04:23;;;;;;;;;;;;;;;;;;5011328;28;8745;-85
2022/09/07 12:06:55;;;;;;;;;;;;;;;;;;5012483;28;7310;-84
2022/09/07 12:09:20;;;;;;;;;;;;;;;;;;5012181;28;8470;-82
2022/09/07 12:12:05;;;;;;;;;;;;;;;;;;5011306;28;8463;-84
2022/09/07 12:14:40;;;;;;;;;;;;;;;;;;5011288;28;7276;-84
2022/09/07 12:17:44;;;;;;;;;;;;;;;;;;5011186;28;7024;-84
2022/09/07 12:20:15;;;;;;;;;;;;;;;;;;4939351;28;8724;-85
2022/09/07 12:22:57;;;;;;;;;;;;;;;;;;4954872;28;7229;-85
2022/09/07 12:25:24;;;;;;;;;;;;;;;;;;4955664;28;7023;-86
2022/09/07 12:27:51;;;;;;;;;;;;;;;;;;4955289;28;9288;-87
2022/09/07 12:30:17;;;;;;;;;;;;;;;;;;4955172;28;8409;-84
2022/09/07 12:32:54;;;;;;;;;;;;;;;;;;4939547;28;7036;-83
2022/09/07 12:35:29;;;;;;;;;;;;;;;;;;4939039;28;8473;-84
2022/09/07 12:37:56;;;;;;;;;;;;;;;;;;4939818;28;8958;-85
2022/09/07 12:40:27;;;;;;;;;;;;;;;;;;4955339;28;8482;-86
2022/09/07 12:43:11;;;;;;;;;;;;;;;;;;4939472;28;9217;-83
2022/09/07 12:45:37;;;;;;;;;;;;;;;;;;4938507;28;8835;-82
2022/09/07 12:48:19;;;;;;;;;;;;;;;;;;4938829;29;8470;-82
2022/09/07 12:50:57;;;;;;;;;;;;;;;;;;4972083;28;8996;-82
2022/09/07 12:53:23;;;;;;;;;;;;;;;;;;5010896;28;8858;-82
2022/09/07 12:55:57;;;;;;;;;;;;;;;;;;4994143;28;8886;-81
2022/09/07 12:58:22;;;;;;;;;;;;;;;;;;5010911;28;7077;-85
2022/09/07 13:00:54;;;;;;;;;;;;;;;;;;4994363;28;8453;-84
2022/09/07 13:03:32;;;;;;;;;;;;;;;;;;4994485;28;8474;-84
2022/09/07 13:06:07;;;;;;;;;;;;;;;;;;5010497;28;8566;-84
2022/09/07 13:08:55;;;;;;;;;;;;;;;;;;4993889;28;8660;-85
2022/09/07 13:11:30;;;;;;;;;;;;;;;;;;5011167;28;8971;-84
2022/09/07 13:14:01;;;;;;;;;;;;;;;;;;5010507;28;7094;-84
2022/09/07 13:16:27;;;;;;;;;;;;;;;;;;5011028;28;8508;-84
2022/09/07 13:18:52;;;;;;;;;;;;;;;;;;4994453;28;8450;-83
2022/09/07 13:21:38;;;;;;;;;;;;;;;;;;5010023;28;8316;-83
2022/09/07 13:24:17;;;;;;;;;;;;;;;;;;4993766;28;7134;-86
2022/09/07 13:26:49;;;;;;;;;;;;;;;;;;4994118;28;7292;-84
2022/09/07 13:29:18;;;;;;;;;;;;;;;;;;4993778;28;8903;-85
2022/09/07 13:31:44;;;;;;;;;;;;;;;;;;5010550;28;7495;-84
2022/09/07 13:34:28;;;;;;;;;;;;;;;;;;4993882;28;7107;-84
2022/09/07 13:36:54;;;;;;;;;;;;;;;;;;4994780;28;8581;-85
2022/09/07 13:39:20;;;;;;;;;;;;;;;;;;5010158;28;6855;-84
2022/09/07 13:41:51;;;;;;;;;;;;;;;;;;5010228;28;8813;-83
2022/09/07 13:44:29;;;;;;;;;;;;;;;;;;5010420;28;8502;-84
2022/09/07 13:47:08;;;;;;;;;;;;;;;;;;5010614;28;7107;-85
2022/09/07 13:49:45;;;;;;;;;;;;;;;;;;5010771;28;7131;-83
2022/09/07 13:52:10;;;;;;;;;;;;;;;;;;5010110;28;8674;-86
2022/09/07 13:54:35;;;;;;;;;;;;;;;;;;4993798;28;8582;-84
2022/09/07 13:57:20;;;;;;;;;;;;;;;;;;4997125;28;8610;-85
2022/09/07 13:59:49;;;;;;;;;;;;;;;;;;4997536;28;8502;-84
2022/09/07 14:02:28;;;;;;;;;;;;;;;;;;5013593;28;8783;-85
2022/09/07 14:04:57;;;;;;;;;;;;;;;;;;5014162;28;7062;-85
2022/09/07 14:07:25;;;;;;;;;;;;;;;;;;5014120;28;7220;-85
2022/09/07 14:10:23;;;;;;;;;;;;;;;;;;5013781;28;7142;-84
2022/09/07 14:12:54;;;;;;;;;;;;;;;;;;4965217;28;8492;-84
2022/09/07 14:15:23;;;;;;;;;;;;;;;;;;5012936;28;9385;-79
2022/09/07 14:17:53;;;;;;;;;;;;;;;;;;4998353;28;7321;-86
2022/09/07 14:20:20;;;;;;;;;;;;;;;;;;5013351;28;8578;-86
2022/09/07 14:22:46;;;;;;;;;;;;;;;;;;5013381;28;7235;-86
2022/09/07 14:25:17;;;;;;;;;;;;;;;;;;5013698;28;7210;-85
2022/09/07 14:27:43;;;;;;;;;;;;;;;;;;5013206;28;8822;-86
2022/09/07 14:30:19;;;;;;;;;;;;;;;;;;5013395;28;8693;-86
2022/09/07 14:32:50;;;;;;;;;;;;;;;;;;4996906;28;6956;-82
2022/09/07 14:35:18;;;;;;;;;;;;;;;;;;5012925;28;7613;-83
2022/09/07 14:37:45;;;;;;;;;;;;;;;;;;5012904;28;8476;-81
2022/09/07 14:40:20;;;;;;;;;;;;;;;;;;5013152;28;8489;-85
2022/09/07 14:42:48;;;;;;;;;;;;;;;;;;5013004;28;8490;-85
2022/09/07 14:45:19;;;;;;;;;;;;;;;;;;5013163;28;7228;-86
2022/09/07 14:47:47;;;;;;;;;;;;;;;;;;5013256;28;8498;-86
2022/09/07 14:50:39;;;;;;;;;;;;;;;;;;5013324;28;8572;-85
2022/09/07 14:53:10;;;;;;;;;;;;;;;;;;4993728;28;7852;-86
2022/09/07 14:55:44;;;;;;;;;;;;;;;;;;5012820;28;7245;-84
2022/09/07 14:58:20;;;;;;;;;;;;;;;;;;5012774;28;8478;-85
2022/09/07 15:01:07;;;;;;;;;;;;;;;;;;5013233;28;8471;-86
2022/09/07 15:03:42;;;;;;;;;;;;;;;;;;5011322;28;7111;-84
2022/09/07 15:06:09;;;;;;;;;;;;;;;;;;4994964;28;8577;-84
2022/09/07 15:08:45;;;;;;;;;;;;;;;;;;5010269;28;7692;-85
2022/09/07 15:11:20;;;;;;;;;;;;;;;;;;5011270;28;7333;-85
2022/09/07 15:13:53;;;;;;;;;;;;;;;;;;5011175;28;8570;-83
2022/09/07 15:16:21;;;;;;;;;;;;;;;;;;5011469;28;7116;-85
2022/09/07 15:19:05;;;;;;;;;;;;;;;;;;5011723;28;8411;-87
2022/09/07 15:21:34;;;;;;;;;;;;;;;;;;4995333;28;7133;-86
2022/09/07 15:24:00;;;;;;;;;;;;;;;;;;5011724;28;8990;-85
2022/09/07 15:26:29;;;;;;;;;;;;;;;;;;5011702;28;8546;-84
2022/09/07 15:28:54;;;;;;;;;;;;;;;;;;5012206;28;9314;-84
2022/09/07 15:31:20;;;;;;;;;;;;;;;;;;5011662;28;8839;-87
2022/09/07 15:33:47;;;;;;;;;;;;;;;;;;5011327;28;7427;-85
2022/09/07 15:36:14;;;;;;;;;;;;;;;;;;5011968;28;7726;-86
2022/09/07 15:38:39;;;;;;;;;;;;;;;;;;5011713;28;8480;-84
2022/09/07 15:41:05;;;;;;;;;;;;;;;;;;5011777;28;8637;-85
2022/09/07 15:43:31;;;;;;;;;;;;;;;;;;5011900;28;8544;-85
2022/09/07 15:45:56;;;;;;;;;;;;;;;;;;5011656;28;8667;-85
2022/09/07 15:48:26;;;;;;;;;;;;;;;;;;5011896;28;7216;-86
2022/09/07 15:50:59;;;;;;;;;;;;;;;;;;5012431;28;8584;-77
2022/09/07 15:53:25;;;;;;;;;;;;;;;;;;5012330;28;8702;-87
2022/09/07 15:55:53;;;;;;;;;;;;;;;;;;5011862;28;8534;-84
2022/09/07 15:58:19;;;;;;;;;;;;;;;;;;5011462;28;8513;-85
2022/09/07 16:00:44;;;;;;;;;;;;;;;;;;5011994;28;8512;-84
2022/09/07 16:03:10;;;;;;;;;;;;;;;;;;5011552;28;8536;-84
2022/09/07 16:05:39;;;;;;;;;;;;;;;;;;5011864;28;7209;-85
2022/09/07 16:08:05;;;;;;;;;;;;;;;;;;5011439;28;7114;-85
2022/09/07 16:10:30;;;;;;;;;;;;;;;;;;4995152;28;7379;-86
2022/09/07 16:12:56;;;;;;;;;;;;;;;;;;5011527;28;8545;-86
2022/09/07 16:15:22;;;;;;;;;;;;;;;;;;5011748;28;7220;-85
2022/09/07 16:17:48;;;;;;;;;;;;;;;;;;5011129;28;8494;-86
2022/09/07 16:20:14;;;;;;;;;;;;;;;;;;5010859;28;7315;-84
2022/09/07 16:22:40;;;;;;;;;;;;;;;;;;5011316;28;8569;-85
2022/09/07 16:25:06;;;;;;;;;;;;;;;;;;5011079;28;8731;-85
2022/09/07 16:27:31;;;;;;;;;;;;;;;;;;5011179;28;8638;-85
2022/09/07 16:29:57;;;;;;;;;;;;;;;;;;5010869;28;8801;-87
2022/09/07 16:32:22;;;;;;;;;;;;;;;;;;5011496;28;7223;-85
2022/09/07 16:34:48;;;;;;;;;;;;;;;;;;5012612;28;9374;-85
2022/09/07 16:37:14;;;;;;;;;;;;;;;;;;5011003;28;7306;-84
2022/09/07 16:39:40;;;;;;;;;;;;;;;;;;5011216;28;8521;-83
2022/09/07 16:42:05;;;;;;;;;;;;;;;;;;5011159;28;8456;-84
2022/09/07 16:44:33;;;;;;;;;;;;;;;;;;5011326;28;8540;-82
2022/09/07 16:46:59;;;;;;;;;;;;;;;;;;5010643;28;8888;-85
2022/09/07 16:49:27;;;;;;;;;;;;;;;;;;5010767;28;8446;-85
2022/09/07 16:51:53;;;;;;;;;;;;;;;;;;5011271;28;9063;-87
2022/09/07 16:54:19;;;;;;;;;;;;;;;;;;5011352;28;7113;-87
2022/09/07 16:56:44;;;;;;;;;;;;;;;;;;5011568;28;7031;-86
2022/09/07 16:59:15;;;;;;;;;;;;;;;;;;5011150;28;8546;-86
2022/09/07 17:01:41;;;;;;;;;;;;;;;;;;5010746;28;9207;-85
2022/09/07 17:04:07;;;;;;;;;;;;;;;;;;5010682;28;9064;-85
2022/09/07 17:06:33;;;;;;;;;;;;;;;;;;5010541;28;8640;-86
2022/09/07 17:08:58;;;;;;;;;;;;;;;;;;5010972;28;8566;-86
2022/09/07 17:11:26;;;;;;;;;;;;;;;;;;5010356;28;9081;-85
2022/09/07 17:13:52;;;;;;;;;;;;;;;;;;5010430;28;8439;-85
2022/09/07 17:16:20;;;;;;;;;;;;;;;;;;5010532;28;7225;-86
2022/09/07 17:18:46;;;;;;;;;;;;;;;;;;5010260;28;8456;-87
2022/09/07 17:21:12;;;;;;;;;;;;;;;;;;5011166;28;8833;-85